PHX weather

Phoenix Sky Harbor International Airport
Phoenix, Arizona, United States

Public forecast

Using degrees Fahrenheit for public forecast. Weather courtesy of forecast.io.

METAR (pilot weather report)

Retrieved 2018/04/22 08:51 UTC (1 hour ago):

KPHX 220851Z 12005KT 10SM BKN250 22/02 A2990 RMK AO2 SLP108 T02220017 58009

TAF (pilot weather forecast)

Retrieved 2018/04/22 06:22 UTC (4 hours ago):

TAF KPHX 220520Z 2206/2312 VRB05KT P6SM BKN250 FM220800 10005KT P6SM BKN250 FM222000 25007KT P6SM SCT180 BKN250 FM230800 10006KT P6SM SCT250